sensor_id;sensor_type;location;lat;lon;timestamp;P1;durP1;ratioP1;P2;durP2;ratioP2
18433;SDS011;9344;52.294;13.626;2022-09-03T00:02:30;0.80;;;0.80;;
18433;SDS011;9344;52.294;13.626;2022-09-03T00:05:02;1.48;;;0.85;;
18433;SDS011;9344;52.294;13.626;2022-09-03T00:07:35;1.60;;;0.80;;
18433;SDS011;9344;52.294;13.626;2022-09-03T00:10:09;2.38;;;0.93;;
18433;SDS011;9344;52.294;13.626;2022-09-03T00:12:39;1.23;;;1.00;;
18433;SDS011;9344;52.294;13.626;2022-09-03T00:15:09;0.73;;;0.70;;
18433;SDS011;9344;52.294;13.626;2022-09-03T00:17:41;1.40;;;0.77;;
18433;SDS011;9344;52.294;13.626;2022-09-03T00:20:14;0.95;;;0.70;;
18433;SDS011;9344;52.294;13.626;2022-09-03T00:22:45;1.42;;;0.93;;
18433;SDS011;9344;52.294;13.626;2022-09-03T00:25:28;0.90;;;0.70;;
18433;SDS011;9344;52.294;13.626;2022-09-03T00:28:01;1.10;;;0.80;;
18433;SDS011;9344;52.294;13.626;2022-09-03T00:30:32;1.13;;;0.60;;
18433;SDS011;9344;52.294;13.626;2022-09-03T00:33:02;0.80;;;0.70;;
18433;SDS011;9344;52.294;13.626;2022-09-03T00:35:36;2.05;;;0.80;;
18433;SDS011;9344;52.294;13.626;2022-09-03T00:38:08;1.42;;;0.80;;
18433;SDS011;9344;52.294;13.626;2022-09-03T00:40:37;1.58;;;0.90;;
18433;SDS011;9344;52.294;13.626;2022-09-03T00:43:14;1.35;;;0.90;;
18433;SDS011;9344;52.294;13.626;2022-09-03T00:45:58;1.70;;;0.75;;
18433;SDS011;9344;52.294;13.626;2022-09-03T00:48:34;1.30;;;0.77;;
18433;SDS011;9344;52.294;13.626;2022-09-03T00:51:12;1.60;;;0.90;;
18433;SDS011;9344;52.294;13.626;2022-09-03T00:53:51;0.80;;;0.80;;
18433;SDS011;9344;52.294;13.626;2022-09-03T00:56:26;1.13;;;0.73;;
18433;SDS011;9344;52.294;13.626;2022-09-03T00:59:06;1.67;;;0.90;;
18433;SDS011;9344;52.294;13.626;2022-09-03T01:01:53;3.15;;;0.85;;
18433;SDS011;9344;52.294;13.626;2022-09-03T01:04:30;1.55;;;0.80;;
18433;SDS011;9344;52.294;13.626;2022-09-03T01:07:05;0.85;;;0.68;;
18433;SDS011;9344;52.294;13.626;2022-09-03T01:09:40;1.20;;;0.70;;
18433;SDS011;9344;52.294;13.626;2022-09-03T01:12:17;1.17;;;0.80;;
18433;SDS011;9344;52.294;13.626;2022-09-03T01:14:54;0.85;;;0.70;;
18433;SDS011;9344;52.294;13.626;2022-09-03T01:17:32;1.25;;;0.77;;
18433;SDS011;9344;52.294;13.626;2022-09-03T01:20:13;0.93;;;0.65;;
18433;SDS011;9344;52.294;13.626;2022-09-03T01:23:06;1.52;;;0.75;;
18433;SDS011;9344;52.294;13.626;2022-09-03T01:25:53;2.00;;;0.85;;
18433;SDS011;9344;52.294;13.626;2022-09-03T01:28:34;0.93;;;0.82;;
18433;SDS011;9344;52.294;13.626;2022-09-03T01:31:13;1.25;;;0.80;;
18433;SDS011;9344;52.294;13.626;2022-09-03T01:33:51;0.75;;;0.70;;
18433;SDS011;9344;52.294;13.626;2022-09-03T01:36:25;1.10;;;0.70;;
18433;SDS011;9344;52.294;13.626;2022-09-03T01:39:00;0.73;;;0.65;;
18433;SDS011;9344;52.294;13.626;2022-09-03T01:41:32;1.50;;;0.70;;
18433;SDS011;9344;52.294;13.626;2022-09-03T01:44:27;0.90;;;0.60;;
18433;SDS011;9344;52.294;13.626;2022-09-03T01:47:05;3.42;;;0.95;;
18433;SDS011;9344;52.294;13.626;2022-09-03T01:49:40;0.88;;;0.68;;
18433;SDS011;9344;52.294;13.626;2022-09-03T01:52:14;1.17;;;0.75;;
18433;SDS011;9344;52.294;13.626;2022-09-03T01:54:54;1.45;;;0.70;;
18433;SDS011;9344;52.294;13.626;2022-09-03T01:57:38;1.80;;;0.77;;
18433;SDS011;9344;52.294;13.626;2022-09-03T02:00:13;1.55;;;0.80;;
18433;SDS011;9344;52.294;13.626;2022-09-03T02:02:44;3.22;;;0.75;;
18433;SDS011;9344;52.294;13.626;2022-09-03T02:05:14;1.20;;;0.70;;
18433;SDS011;9344;52.294;13.626;2022-09-03T02:07:43;2.63;;;0.80;;
18433;SDS011;9344;52.294;13.626;2022-09-03T02:10:12;0.90;;;0.70;;
18433;SDS011;9344;52.294;13.626;2022-09-03T02:12:41;1.42;;;0.63;;
18433;SDS011;9344;52.294;13.626;2022-09-03T02:15:12;0.85;;;0.70;;
18433;SDS011;9344;52.294;13.626;2022-09-03T02:17:42;1.92;;;0.85;;
18433;SDS011;9344;52.294;13.626;2022-09-03T02:20:14;1.00;;;0.80;;
18433;SDS011;9344;52.294;13.626;2022-09-03T02:22:44;1.48;;;0.77;;
18433;SDS011;9344;52.294;13.626;2022-09-03T02:25:12;1.38;;;0.90;;
18433;SDS011;9344;52.294;13.626;2022-09-03T02:27:40;1.00;;;0.80;;
18433;SDS011;9344;52.294;13.626;2022-09-03T02:30:08;1.67;;;0.88;;
18433;SDS011;9344;52.294;13.626;2022-09-03T02:32:36;2.00;;;0.70;;
18433;SDS011;9344;52.294;13.626;2022-09-03T02:35:03;2.90;;;0.80;;
18433;SDS011;9344;52.294;13.626;2022-09-03T02:37:30;1.65;;;0.70;;
18433;SDS011;9344;52.294;13.626;2022-09-03T02:39:57;1.73;;;0.75;;
18433;SDS011;9344;52.294;13.626;2022-09-03T02:42:23;3.15;;;1.00;;
18433;SDS011;9344;52.294;13.626;2022-09-03T02:44:51;1.40;;;1.02;;
18433;SDS011;9344;52.294;13.626;2022-09-03T02:47:20;1.02;;;0.75;;
18433;SDS011;9344;52.294;13.626;2022-09-03T02:49:49;1.75;;;0.73;;
18433;SDS011;9344;52.294;13.626;2022-09-03T02:52:16;0.90;;;0.70;;
18433;SDS011;9344;52.294;13.626;2022-09-03T02:54:43;1.58;;;1.00;;
18433;SDS011;9344;52.294;13.626;2022-09-03T02:57:10;1.15;;;0.80;;
18433;SDS011;9344;52.294;13.626;2022-09-03T02:59:39;1.65;;;0.90;;
18433;SDS011;9344;52.294;13.626;2022-09-03T03:02:08;1.40;;;0.80;;
18433;SDS011;9344;52.294;13.626;2022-09-03T03:04:35;1.40;;;1.02;;
18433;SDS011;9344;52.294;13.626;2022-09-03T03:07:03;1.20;;;1.00;;
18433;SDS011;9344;52.294;13.626;2022-09-03T03:09:30;1.75;;;0.98;;
18433;SDS011;9344;52.294;13.626;2022-09-03T03:11:56;2.10;;;0.85;;
18433;SDS011;9344;52.294;13.626;2022-09-03T03:14:23;1.58;;;0.80;;
18433;SDS011;9344;52.294;13.626;2022-09-03T03:16:50;1.17;;;0.90;;
18433;SDS011;9344;52.294;13.626;2022-09-03T03:19:16;1.40;;;0.90;;
18433;SDS011;9344;52.294;13.626;2022-09-03T03:21:43;1.70;;;0.85;;
18433;SDS011;9344;52.294;13.626;2022-09-03T03:24:11;1.88;;;0.90;;
18433;SDS011;9344;52.294;13.626;2022-09-03T03:26:37;1.05;;;0.80;;
18433;SDS011;9344;52.294;13.626;2022-09-03T03:29:05;1.40;;;0.77;;
18433;SDS011;9344;52.294;13.626;2022-09-03T03:31:31;3.47;;;0.85;;
18433;SDS011;9344;52.294;13.626;2022-09-03T03:33:58;1.35;;;0.75;;
18433;SDS011;9344;52.294;13.626;2022-09-03T03:36:27;1.73;;;0.70;;
18433;SDS011;9344;52.294;13.626;2022-09-03T03:38:55;1.27;;;0.90;;
18433;SDS011;9344;52.294;13.626;2022-09-03T03:41:25;1.65;;;0.90;;
18433;SDS011;9344;52.294;13.626;2022-09-03T03:43:52;2.03;;;0.80;;
18433;SDS011;9344;52.294;13.626;2022-09-03T03:46:20;1.38;;;0.90;;
18433;SDS011;9344;52.294;13.626;2022-09-03T03:48:47;1.10;;;0.98;;
18433;SDS011;9344;52.294;13.626;2022-09-03T03:51:14;1.42;;;0.80;;
18433;SDS011;9344;52.294;13.626;2022-09-03T03:53:41;2.85;;;0.73;;
18433;SDS011;9344;52.294;13.626;2022-09-03T03:56:08;1.90;;;1.00;;
18433;SDS011;9344;52.294;13.626;2022-09-03T03:58:38;1.65;;;0.80;;
18433;SDS011;9344;52.294;13.626;2022-09-03T04:01:08;2.15;;;0.98;;
18433;SDS011;9344;52.294;13.626;2022-09-03T04:03:36;1.05;;;0.90;;
18433;SDS011;9344;52.294;13.626;2022-09-03T04:06:04;3.00;;;1.00;;
18433;SDS011;9344;52.294;13.626;2022-09-03T04:08:33;1.35;;;1.00;;
18433;SDS011;9344;52.294;13.626;2022-09-03T04:11:01;1.45;;;1.00;;
18433;SDS011;9344;52.294;13.626;2022-09-03T04:13:29;0.80;;;0.80;;
18433;SDS011;9344;52.294;13.626;2022-09-03T04:16:00;1.00;;;0.82;;
18433;SDS011;9344;52.294;13.626;2022-09-03T04:18:27;0.88;;;0.80;;
18433;SDS011;9344;52.294;13.626;2022-09-03T04:20:58;0.80;;;0.70;;
18433;SDS011;9344;52.294;13.626;2022-09-03T04:23:28;1.45;;;0.77;;
18433;SDS011;9344;52.294;13.626;2022-09-03T04:25:55;2.20;;;1.20;;
18433;SDS011;9344;52.294;13.626;2022-09-03T04:28:21;1.58;;;0.98;;
18433;SDS011;9344;52.294;13.626;2022-09-03T04:30:48;1.02;;;0.90;;
18433;SDS011;9344;52.294;13.626;2022-09-03T04:33:16;1.75;;;0.90;;
18433;SDS011;9344;52.294;13.626;2022-09-03T04:35:42;1.58;;;1.05;;
18433;SDS011;9344;52.294;13.626;2022-09-03T04:38:09;1.95;;;1.10;;
18433;SDS011;9344;52.294;13.626;2022-09-03T04:40:36;1.70;;;0.90;;
18433;SDS011;9344;52.294;13.626;2022-09-03T04:43:03;0.90;;;0.82;;
18433;SDS011;9344;52.294;13.626;2022-09-03T04:45:30;0.85;;;0.70;;
18433;SDS011;9344;52.294;13.626;2022-09-03T04:47:57;1.40;;;0.90;;
18433;SDS011;9344;52.294;13.626;2022-09-03T04:50:26;1.98;;;1.00;;
18433;SDS011;9344;52.294;13.626;2022-09-03T04:52:54;1.85;;;1.08;;
18433;SDS011;9344;52.294;13.626;2022-09-03T04:55:23;1.60;;;0.75;;
18433;SDS011;9344;52.294;13.626;2022-09-03T04:57:49;1.48;;;1.08;;
18433;SDS011;9344;52.294;13.626;2022-09-03T05:00:16;1.83;;;0.90;;
18433;SDS011;9344;52.294;13.626;2022-09-03T05:02:44;1.38;;;0.80;;
18433;SDS011;9344;52.294;13.626;2022-09-03T05:05:11;1.48;;;1.02;;
18433;SDS011;9344;52.294;13.626;2022-09-03T05:07:39;1.52;;;0.80;;
18433;SDS011;9344;52.294;13.626;2022-09-03T05:10:06;6.35;;;0.80;;
18433;SDS011;9344;52.294;13.626;2022-09-03T05:12:37;1.30;;;0.90;;
18433;SDS011;9344;52.294;13.626;2022-09-03T05:15:04;1.98;;;0.98;;
18433;SDS011;9344;52.294;13.626;2022-09-03T05:17:31;1.42;;;1.00;;
18433;SDS011;9344;52.294;13.626;2022-09-03T05:19:57;1.20;;;1.10;;
18433;SDS011;9344;52.294;13.626;2022-09-03T05:22:24;1.35;;;1.00;;
18433;SDS011;9344;52.294;13.626;2022-09-03T05:24:52;1.88;;;1.00;;
18433;SDS011;9344;52.294;13.626;2022-09-03T05:27:20;2.67;;;1.15;;
18433;SDS011;9344;52.294;13.626;2022-09-03T05:29:46;1.67;;;1.05;;
18433;SDS011;9344;52.294;13.626;2022-09-03T05:32:13;2.03;;;1.10;;
18433;SDS011;9344;52.294;13.626;2022-09-03T05:34:41;1.83;;;1.00;;
18433;SDS011;9344;52.294;13.626;2022-09-03T05:37:07;2.45;;;1.10;;
18433;SDS011;9344;52.294;13.626;2022-09-03T05:39:34;1.70;;;1.00;;
18433;SDS011;9344;52.294;13.626;2022-09-03T05:42:02;1.35;;;1.08;;
18433;SDS011;9344;52.294;13.626;2022-09-03T05:44:29;2.40;;;1.25;;
18433;SDS011;9344;52.294;13.626;2022-09-03T05:46:55;1.15;;;1.02;;
18433;SDS011;9344;52.294;13.626;2022-09-03T05:49:22;2.05;;;1.10;;
18433;SDS011;9344;52.294;13.626;2022-09-03T05:51:49;1.42;;;1.00;;
18433;SDS011;9344;52.294;13.626;2022-09-03T05:54:15;1.40;;;1.10;;
18433;SDS011;9344;52.294;13.626;2022-09-03T05:56:42;2.40;;;1.02;;
18433;SDS011;9344;52.294;13.626;2022-09-03T05:59:10;2.67;;;1.20;;
18433;SDS011;9344;52.294;13.626;2022-09-03T06:01:38;7.53;;;1.33;;
18433;SDS011;9344;52.294;13.626;2022-09-03T06:04:07;1.70;;;1.08;;
18433;SDS011;9344;52.294;13.626;2022-09-03T06:06:36;2.10;;;1.02;;
18433;SDS011;9344;52.294;13.626;2022-09-03T06:09:05;2.75;;;1.10;;
18433;SDS011;9344;52.294;13.626;2022-09-03T06:11:34;2.00;;;1.10;;
18433;SDS011;9344;52.294;13.626;2022-09-03T06:14:03;2.45;;;1.23;;
18433;SDS011;9344;52.294;13.626;2022-09-03T06:16:33;1.27;;;0.88;;
18433;SDS011;9344;52.294;13.626;2022-09-03T06:19:01;1.50;;;1.08;;
18433;SDS011;9344;52.294;13.626;2022-09-03T06:21:30;1.83;;;1.10;;
18433;SDS011;9344;52.294;13.626;2022-09-03T06:23:56;1.45;;;1.05;;
18433;SDS011;9344;52.294;13.626;2022-09-03T06:26:23;2.72;;;1.08;;
18433;SDS011;9344;52.294;13.626;2022-09-03T06:28:52;2.17;;;1.10;;
18433;SDS011;9344;52.294;13.626;2022-09-03T06:31:19;2.05;;;1.00;;
18433;SDS011;9344;52.294;13.626;2022-09-03T06:33:48;3.13;;;1.13;;
18433;SDS011;9344;52.294;13.626;2022-09-03T06:36:15;2.83;;;1.10;;
18433;SDS011;9344;52.294;13.626;2022-09-03T06:38:43;1.00;;;0.90;;
18433;SDS011;9344;52.294;13.626;2022-09-03T06:41:11;1.85;;;1.20;;
18433;SDS011;9344;52.294;13.626;2022-09-03T06:43:40;1.48;;;1.05;;
18433;SDS011;9344;52.294;13.626;2022-09-03T06:46:08;1.92;;;1.05;;
18433;SDS011;9344;52.294;13.626;2022-09-03T06:48:36;1.52;;;1.10;;
18433;SDS011;9344;52.294;13.626;2022-09-03T06:51:06;2.42;;;1.05;;
18433;SDS011;9344;52.294;13.626;2022-09-03T06:53:35;2.15;;;1.20;;
18433;SDS011;9344;52.294;13.626;2022-09-03T06:56:04;1.45;;;0.98;;
18433;SDS011;9344;52.294;13.626;2022-09-03T06:58:33;1.73;;;1.13;;
18433;SDS011;9344;52.294;13.626;2022-09-03T07:01:01;2.83;;;1.15;;
18433;SDS011;9344;52.294;13.626;2022-09-03T07:03:30;3.17;;;0.95;;
18433;SDS011;9344;52.294;13.626;2022-09-03T07:05:59;1.88;;;0.95;;
18433;SDS011;9344;52.294;13.626;2022-09-03T07:08:27;1.75;;;1.10;;
18433;SDS011;9344;52.294;13.626;2022-09-03T07:10:55;2.55;;;1.20;;
18433;SDS011;9344;52.294;13.626;2022-09-03T07:13:22;2.50;;;1.17;;
18433;SDS011;9344;52.294;13.626;2022-09-03T07:15:56;1.40;;;0.90;;
18433;SDS011;9344;52.294;13.626;2022-09-03T07:18:24;2.22;;;1.20;;
18433;SDS011;9344;52.294;13.626;2022-09-03T07:20:50;1.35;;;1.00;;
18433;SDS011;9344;52.294;13.626;2022-09-03T07:23:17;1.45;;;1.15;;
18433;SDS011;9344;52.294;13.626;2022-09-03T07:25:45;2.08;;;1.30;;
18433;SDS011;9344;52.294;13.626;2022-09-03T07:28:18;2.22;;;1.15;;
18433;SDS011;9344;52.294;13.626;2022-09-03T07:30:44;1.73;;;1.10;;
18433;SDS011;9344;52.294;13.626;2022-09-03T07:33:11;1.63;;;1.08;;
18433;SDS011;9344;52.294;13.626;2022-09-03T07:35:38;2.15;;;1.20;;
18433;SDS011;9344;52.294;13.626;2022-09-03T07:38:04;1.73;;;1.10;;
18433;SDS011;9344;52.294;13.626;2022-09-03T07:40:30;2.13;;;1.10;;
18433;SDS011;9344;52.294;13.626;2022-09-03T07:42:59;1.90;;;1.00;;
18433;SDS011;9344;52.294;13.626;2022-09-03T07:45:28;3.13;;;1.02;;
18433;SDS011;9344;52.294;13.626;2022-09-03T07:47:54;1.58;;;0.90;;
18433;SDS011;9344;52.294;13.626;2022-09-03T07:50:21;1.67;;;1.02;;
18433;SDS011;9344;52.294;13.626;2022-09-03T07:52:48;1.45;;;1.00;;
18433;SDS011;9344;52.294;13.626;2022-09-03T07:55:14;1.70;;;0.95;;
18433;SDS011;9344;52.294;13.626;2022-09-03T07:57:41;2.55;;;1.00;;
18433;SDS011;9344;52.294;13.626;2022-09-03T08:00:10;1.20;;;0.77;;
18433;SDS011;9344;52.294;13.626;2022-09-03T08:02:37;1.30;;;1.00;;
18433;SDS011;9344;52.294;13.626;2022-09-03T08:05:04;1.95;;;1.00;;
18433;SDS011;9344;52.294;13.626;2022-09-03T08:07:31;2.70;;;1.10;;
18433;SDS011;9344;52.294;13.626;2022-09-03T08:09:57;1.13;;;0.70;;
18433;SDS011;9344;52.294;13.626;2022-09-03T08:12:25;1.75;;;1.08;;
18433;SDS011;9344;52.294;13.626;2022-09-03T08:14:52;1.33;;;0.80;;
18433;SDS011;9344;52.294;13.626;2022-09-03T08:17:20;1.52;;;0.90;;
18433;SDS011;9344;52.294;13.626;2022-09-03T08:19:46;0.93;;;0.82;;
18433;SDS011;9344;52.294;13.626;2022-09-03T08:22:13;1.25;;;0.90;;
18433;SDS011;9344;52.294;13.626;2022-09-03T08:24:39;0.95;;;0.75;;
18433;SDS011;9344;52.294;13.626;2022-09-03T08:27:06;3.55;;;0.85;;
18433;SDS011;9344;52.294;13.626;2022-09-03T08:29:33;1.88;;;1.00;;
18433;SDS011;9344;52.294;13.626;2022-09-03T08:32:00;1.00;;;0.80;;
18433;SDS011;9344;52.294;13.626;2022-09-03T08:34:27;1.40;;;0.90;;
18433;SDS011;9344;52.294;13.626;2022-09-03T08:36:54;1.23;;;0.80;;
18433;SDS011;9344;52.294;13.626;2022-09-03T08:39:21;2.10;;;0.90;;
18433;SDS011;9344;52.294;13.626;2022-09-03T08:41:52;1.98;;;0.90;;
18433;SDS011;9344;52.294;13.626;2022-09-03T08:44:36;1.45;;;0.80;;
18433;SDS011;9344;52.294;13.626;2022-09-03T08:47:09;1.20;;;0.75;;
18433;SDS011;9344;52.294;13.626;2022-09-03T08:49:42;0.90;;;0.70;;
18433;SDS011;9344;52.294;13.626;2022-09-03T08:52:19;1.83;;;0.80;;
18433;SDS011;9344;52.294;13.626;2022-09-03T08:54:50;1.50;;;1.00;;
18433;SDS011;9344;52.294;13.626;2022-09-03T08:57:18;1.48;;;0.80;;
18433;SDS011;9344;52.294;13.626;2022-09-03T08:59:47;1.52;;;0.90;;
18433;SDS011;9344;52.294;13.626;2022-09-03T09:02:18;1.92;;;1.10;;
18433;SDS011;9344;52.294;13.626;2022-09-03T09:04:55;1.60;;;0.73;;
18433;SDS011;9344;52.294;13.626;2022-09-03T09:07:28;1.48;;;0.68;;
18433;SDS011;9344;52.294;13.626;2022-09-03T09:10:02;1.30;;;0.75;;
18433;SDS011;9344;52.294;13.626;2022-09-03T09:12:39;1.73;;;0.80;;
18433;SDS011;9344;52.294;13.626;2022-09-03T09:15:12;1.52;;;0.68;;
18433;SDS011;9344;52.294;13.626;2022-09-03T09:17:49;0.80;;;0.60;;
18433;SDS011;9344;52.294;13.626;2022-09-03T09:20:30;0.73;;;0.70;;
18433;SDS011;9344;52.294;13.626;2022-09-03T09:23:02;1.05;;;0.63;;
18433;SDS011;9344;52.294;13.626;2022-09-03T09:25:30;1.65;;;1.00;;
18433;SDS011;9344;52.294;13.626;2022-09-03T09:28:07;1.23;;;0.70;;
18433;SDS011;9344;52.294;13.626;2022-09-03T09:30:40;1.13;;;0.63;;
18433;SDS011;9344;52.294;13.626;2022-09-03T09:33:09;1.27;;;0.70;;
18433;SDS011;9344;52.294;13.626;2022-09-03T09:35:37;2.95;;;1.02;;
18433;SDS011;9344;52.294;13.626;2022-09-03T09:38:06;2.80;;;0.95;;
18433;SDS011;9344;52.294;13.626;2022-09-03T09:40:34;2.05;;;0.70;;
18433;SDS011;9344;52.294;13.626;2022-09-03T09:43:03;1.95;;;0.75;;
18433;SDS011;9344;52.294;13.626;2022-09-03T09:45:35;2.22;;;0.88;;
18433;SDS011;9344;52.294;13.626;2022-09-03T09:48:06;0.77;;;0.40;;
18433;SDS011;9344;52.294;13.626;2022-09-03T09:50:35;1.55;;;0.50;;
18433;SDS011;9344;52.294;13.626;2022-09-03T09:53:04;1.70;;;0.70;;
18433;SDS011;9344;52.294;13.626;2022-09-03T09:55:47;3.65;;;0.70;;
18433;SDS011;9344;52.294;13.626;2022-09-03T09:58:15;2.20;;;0.70;;
18433;SDS011;9344;52.294;13.626;2022-09-03T10:00:53;1.00;;;0.50;;
18433;SDS011;9344;52.294;13.626;2022-09-03T10:03:25;0.93;;;0.60;;
18433;SDS011;9344;52.294;13.626;2022-09-03T10:05:56;3.58;;;0.60;;
18433;SDS011;9344;52.294;13.626;2022-09-03T10:08:48;0.95;;;0.70;;
18433;SDS011;9344;52.294;13.626;2022-09-03T10:11:15;0.75;;;0.55;;
18433;SDS011;9344;52.294;13.626;2022-09-03T10:13:44;1.08;;;0.60;;
18433;SDS011;9344;52.294;13.626;2022-09-03T10:16:17;0.88;;;0.60;;
18433;SDS011;9344;52.294;13.626;2022-09-03T10:18:48;0.70;;;0.60;;
18433;SDS011;9344;52.294;13.626;2022-09-03T10:21:19;3.42;;;0.52;;
18433;SDS011;9344;52.294;13.626;2022-09-03T10:23:55;0.63;;;0.50;;
18433;SDS011;9344;52.294;13.626;2022-09-03T10:26:24;0.40;;;0.40;;
18433;SDS011;9344;52.294;13.626;2022-09-03T10:28:57;1.27;;;0.70;;
18433;SDS011;9344;52.294;13.626;2022-09-03T10:31:40;3.33;;;0.80;;
18433;SDS011;9344;52.294;13.626;2022-09-03T10:34:21;1.92;;;0.50;;
18433;SDS011;9344;52.294;13.626;2022-09-03T10:36:59;0.52;;;0.52;;
18433;SDS011;9344;52.294;13.626;2022-09-03T10:39:37;1.00;;;0.70;;
18433;SDS011;9344;52.294;13.626;2022-09-03T10:42:11;2.45;;;0.65;;
18433;SDS011;9344;52.294;13.626;2022-09-03T10:44:49;2.22;;;0.80;;
18433;SDS011;9344;52.294;13.626;2022-09-03T10:47:30;1.60;;;0.70;;
18433;SDS011;9344;52.294;13.626;2022-09-03T10:50:08;1.20;;;0.70;;
18433;SDS011;9344;52.294;13.626;2022-09-03T10:52:42;1.10;;;0.60;;
18433;SDS011;9344;52.294;13.626;2022-09-03T10:55:25;1.13;;;0.60;;
18433;SDS011;9344;52.294;13.626;2022-09-03T10:58:03;1.17;;;0.60;;
18433;SDS011;9344;52.294;13.626;2022-09-03T11:00:44;0.93;;;0.50;;
18433;SDS011;9344;52.294;13.626;2022-09-03T11:03:26;1.13;;;0.65;;
18433;SDS011;9344;52.294;13.626;2022-09-03T11:06:09;1.35;;;0.73;;
18433;SDS011;9344;52.294;13.626;2022-09-03T11:08:40;1.45;;;0.60;;
18433;SDS011;9344;52.294;13.626;2022-09-03T11:11:14;2.53;;;0.70;;
18433;SDS011;9344;52.294;13.626;2022-09-03T11:13:46;2.03;;;0.70;;
18433;SDS011;9344;52.294;13.626;2022-09-03T11:16:19;0.60;;;0.55;;
18433;SDS011;9344;52.294;13.626;2022-09-03T11:18:51;0.68;;;0.60;;
18433;SDS011;9344;52.294;13.626;2022-09-03T11:21:22;1.90;;;0.73;;
18433;SDS011;9344;52.294;13.626;2022-09-03T11:23:51;1.33;;;0.70;;
18433;SDS011;9344;52.294;13.626;2022-09-03T11:26:25;4.60;;;1.00;;
18433;SDS011;9344;52.294;13.626;2022-09-03T11:28:54;1.33;;;0.68;;
18433;SDS011;9344;52.294;13.626;2022-09-03T11:31:28;0.77;;;0.70;;
18433;SDS011;9344;52.294;13.626;2022-09-03T11:34:05;1.85;;;0.80;;
18433;SDS011;9344;52.294;13.626;2022-09-03T11:36:33;1.67;;;1.05;;
18433;SDS011;9344;52.294;13.626;2022-09-03T11:39:11;1.45;;;0.60;;
18433;SDS011;9344;52.294;13.626;2022-09-03T11:41:44;0.82;;;0.70;;
18433;SDS011;9344;52.294;13.626;2022-09-03T11:44:23;1.58;;;0.70;;
18433;SDS011;9344;52.294;13.626;2022-09-03T11:46:53;1.13;;;0.50;;
18433;SDS011;9344;52.294;13.626;2022-09-03T11:49:26;2.13;;;0.70;;
18433;SDS011;9344;52.294;13.626;2022-09-03T11:51:57;1.35;;;0.73;;
18433;SDS011;9344;52.294;13.626;2022-09-03T11:54:25;1.65;;;0.80;;
18433;SDS011;9344;52.294;13.626;2022-09-03T11:57:03;0.73;;;0.60;;
18433;SDS011;9344;52.294;13.626;2022-09-03T11:59:35;1.23;;;0.80;;
18433;SDS011;9344;52.294;13.626;2022-09-03T12:02:02;0.85;;;0.52;;
18433;SDS011;9344;52.294;13.626;2022-09-03T12:04:38;2.10;;;1.08;;
18433;SDS011;9344;52.294;13.626;2022-09-03T12:07:16;3.03;;;0.80;;
18433;SDS011;9344;52.294;13.626;2022-09-03T12:10:01;1.52;;;0.70;;
18433;SDS011;9344;52.294;13.626;2022-09-03T12:12:44;1.30;;;0.77;;
18433;SDS011;9344;52.294;13.626;2022-09-03T12:15:23;1.38;;;0.70;;
18433;SDS011;9344;52.294;13.626;2022-09-03T12:18:01;1.63;;;0.80;;
18433;SDS011;9344;52.294;13.626;2022-09-03T12:20:45;3.80;;;0.95;;
18433;SDS011;9344;52.294;13.626;2022-09-03T12:23:24;1.95;;;1.00;;
18433;SDS011;9344;52.294;13.626;2022-09-03T12:25:53;0.80;;;0.77;;
18433;SDS011;9344;52.294;13.626;2022-09-03T12:28:21;1.75;;;0.80;;
18433;SDS011;9344;52.294;13.626;2022-09-03T12:30:49;1.05;;;0.80;;
18433;SDS011;9344;52.294;13.626;2022-09-03T12:33:17;1.08;;;0.80;;
18433;SDS011;9344;52.294;13.626;2022-09-03T12:35:54;1.38;;;0.85;;
18433;SDS011;9344;52.294;13.626;2022-09-03T12:38:21;1.13;;;0.80;;
18433;SDS011;9344;52.294;13.626;2022-09-03T12:40:49;1.90;;;0.88;;
18433;SDS011;9344;52.294;13.626;2022-09-03T12:43:16;1.60;;;0.95;;
18433;SDS011;9344;52.294;13.626;2022-09-03T12:45:45;2.15;;;1.05;;
18433;SDS011;9344;52.294;13.626;2022-09-03T12:48:15;4.72;;;0.90;;
18433;SDS011;9344;52.294;13.626;2022-09-03T12:50:43;1.38;;;0.80;;
18433;SDS011;9344;52.294;13.626;2022-09-03T12:53:11;1.25;;;0.88;;
18433;SDS011;9344;52.294;13.626;2022-09-03T12:55:45;2.65;;;0.90;;
18433;SDS011;9344;52.294;13.626;2022-09-03T12:58:18;1.42;;;0.90;;
18433;SDS011;9344;52.294;13.626;2022-09-03T13:00:50;1.35;;;0.90;;
18433;SDS011;9344;52.294;13.626;2022-09-03T13:03:22;1.10;;;0.80;;
18433;SDS011;9344;52.294;13.626;2022-09-03T13:05:53;1.95;;;0.90;;
18433;SDS011;9344;52.294;13.626;2022-09-03T13:08:23;1.00;;;0.70;;
18433;SDS011;9344;52.294;13.626;2022-09-03T13:10:53;1.15;;;0.73;;
18433;SDS011;9344;52.294;13.626;2022-09-03T13:13:22;1.20;;;0.80;;
18433;SDS011;9344;52.294;13.626;2022-09-03T13:16:02;1.35;;;0.80;;
18433;SDS011;9344;52.294;13.626;2022-09-03T13:18:43;4.18;;;0.90;;
18433;SDS011;9344;52.294;13.626;2022-09-03T13:21:15;2.17;;;0.90;;
18433;SDS011;9344;52.294;13.626;2022-09-03T13:23:53;1.35;;;0.77;;
18433;SDS011;9344;52.294;13.626;2022-09-03T13:26:31;1.63;;;0.80;;
18433;SDS011;9344;52.294;13.626;2022-09-03T13:32:01;1.40;;;0.90;;
18433;SDS011;9344;52.294;13.626;2022-09-03T13:34:34;1.38;;;0.82;;
18433;SDS011;9344;52.294;13.626;2022-09-03T13:37:08;2.28;;;0.90;;
18433;SDS011;9344;52.294;13.626;2022-09-03T13:39:45;2.15;;;1.13;;
18433;SDS011;9344;52.294;13.626;2022-09-03T13:42:18;2.03;;;1.27;;
18433;SDS011;9344;52.294;13.626;2022-09-03T13:44:51;2.55;;;0.90;;
18433;SDS011;9344;52.294;13.626;2022-09-03T13:47:26;1.85;;;0.80;;
18433;SDS011;9344;52.294;13.626;2022-09-03T13:50:00;1.80;;;1.00;;
18433;SDS011;9344;52.294;13.626;2022-09-03T13:52:47;1.33;;;0.88;;
18433;SDS011;9344;52.294;13.626;2022-09-03T13:55:25;1.23;;;0.90;;
18433;SDS011;9344;52.294;13.626;2022-09-03T13:57:58;1.20;;;1.00;;
18433;SDS011;9344;52.294;13.626;2022-09-03T14:00:29;3.60;;;1.00;;
18433;SDS011;9344;52.294;13.626;2022-09-03T14:03:05;1.08;;;0.65;;
18433;SDS011;9344;52.294;13.626;2022-09-03T14:05:40;2.13;;;1.00;;
18433;SDS011;9344;52.294;13.626;2022-09-03T14:08:14;1.75;;;1.00;;
18433;SDS011;9344;52.294;13.626;2022-09-03T14:10:53;1.42;;;0.90;;
18433;SDS011;9344;52.294;13.626;2022-09-03T14:13:28;1.58;;;0.88;;
18433;SDS011;9344;52.294;13.626;2022-09-03T14:16:03;3.05;;;0.98;;
18433;SDS011;9344;52.294;13.626;2022-09-03T14:18:40;1.00;;;0.80;;
18433;SDS011;9344;52.294;13.626;2022-09-03T14:21:12;0.93;;;0.80;;
18433;SDS011;9344;52.294;13.626;2022-09-03T14:23:44;1.20;;;0.80;;
18433;SDS011;9344;52.294;13.626;2022-09-03T14:26:17;1.98;;;0.82;;
18433;SDS011;9344;52.294;13.626;2022-09-03T14:28:47;1.90;;;1.08;;
18433;SDS011;9344;52.294;13.626;2022-09-03T14:31:24;2.65;;;0.93;;
18433;SDS011;9344;52.294;13.626;2022-09-03T14:34:06;3.75;;;1.00;;
18433;SDS011;9344;52.294;13.626;2022-09-03T14:36:39;1.25;;;0.82;;
18433;SDS011;9344;52.294;13.626;2022-09-03T14:39:16;1.73;;;0.90;;
18433;SDS011;9344;52.294;13.626;2022-09-03T14:42:01;1.88;;;0.80;;
18433;SDS011;9344;52.294;13.626;2022-09-03T14:47:46;1.55;;;0.85;;
18433;SDS011;9344;52.294;13.626;2022-09-03T14:50:27;5.90;;;0.95;;
18433;SDS011;9344;52.294;13.626;2022-09-03T14:56:16;1.70;;;1.00;;
18433;SDS011;9344;52.294;13.626;2022-09-03T14:58:58;1.40;;;0.85;;
18433;SDS011;9344;52.294;13.626;2022-09-03T15:01:33;1.55;;;0.90;;
18433;SDS011;9344;52.294;13.626;2022-09-03T15:04:11;1.83;;;1.10;;
18433;SDS011;9344;52.294;13.626;2022-09-03T15:09:52;1.25;;;0.90;;
18433;SDS011;9344;52.294;13.626;2022-09-03T15:12:27;2.63;;;1.00;;
18433;SDS011;9344;52.294;13.626;2022-09-03T15:14:59;2.60;;;1.10;;
18433;SDS011;9344;52.294;13.626;2022-09-03T15:17:33;1.52;;;0.95;;
18433;SDS011;9344;52.294;13.626;2022-09-03T15:20:14;1.65;;;1.05;;
18433;SDS011;9344;52.294;13.626;2022-09-03T15:22:55;2.28;;;1.20;;
18433;SDS011;9344;52.294;13.626;2022-09-03T15:25:34;3.08;;;0.90;;
18433;SDS011;9344;52.294;13.626;2022-09-03T15:28:10;1.10;;;0.90;;